Time;durP1;ratioP1;P1;durP2;ratioP2;P2;SDS_P1;SDS_P2;PMS_P1;PMS_P2;Temp;Humidity;BMP_temperature;BMP_pressure;BME280_temperature;BME280_humidity;BME280_pressure;Samples;Min_cycle;Max_cycle;Signal;HPM_P1;HPM_P2
2021/01/19 00:02:09;;;;;;;11.80;6.90;;;-3.30;99.40;;;;;;5009761;28;20173;-61
2021/01/19 00:04:35;;;;;;;10.20;6.27;;;-3.40;99.30;;;;;;5013477;28;20518;-58
2021/01/19 00:07:00;;;;;;;13.17;7.00;;;-3.40;99.20;;;;;;5007827;28;20257;-61
2021/01/19 00:09:26;;;;;;;13.40;7.30;;;-3.40;99.30;;;;;;5013315;28;20185;-61
2021/01/19 00:11:51;;;;;;;21.67;7.63;;;-3.40;99.50;;;;;;5009764;28;20221;-61
2021/01/19 00:14:17;;;;;;;14.00;6.97;;;-3.40;99.70;;;;;;5012673;28;20733;-60
2021/01/19 00:16:43;;;;;;;14.60;7.60;;;-3.40;99.60;;;;;;5010201;28;20273;-59
2021/01/19 00:19:08;;;;;;;13.70;6.70;;;-3.40;99.60;;;;;;4994075;28;20272;-61
2021/01/19 00:21:34;;;;;;;12.30;6.53;;;-3.40;99.10;;;;;;5009784;28;20236;-58
2021/01/19 00:24:00;;;;;;;12.93;6.70;;;-3.40;99.30;;;;;;5004339;28;20186;-61
2021/01/19 00:26:25;;;;;;;14.13;6.27;;;-3.40;99.40;;;;;;5006700;28;20523;-60
2021/01/19 00:28:52;;;;;;;12.40;6.20;;;-3.40;98.90;;;;;;5009927;28;20185;-61
2021/01/19 00:31:18;;;;;;;12.40;6.63;;;-3.50;98.40;;;;;;5009694;28;20214;-61
2021/01/19 00:33:43;;;;;;;11.13;6.07;;;-3.60;98.40;;;;;;4994241;28;20433;-61
2021/01/19 00:36:09;;;;;;;13.70;6.67;;;-3.60;98.30;;;;;;5004760;28;20197;-61
2021/01/19 00:38:34;;;;;;;10.30;6.37;;;-3.80;98.60;;;;;;5012448;28;20716;-60
2021/01/19 00:41:00;;;;;;;12.00;7.33;;;-3.80;99.20;;;;;;5010114;28;20224;-60
2021/01/19 00:43:26;;;;;;;12.50;6.30;;;-3.80;99.60;;;;;;5011102;28;20193;-60
2021/01/19 00:45:52;;;;;;;10.33;5.80;;;-3.80;99.90;;;;;;5012289;28;20383;-59
2021/01/19 00:48:17;;;;;;;9.90;6.17;;;-3.70;99.90;;;;;;5013804;28;20958;-60
2021/01/19 00:50:44;;;;;;;16.27;7.33;;;-3.70;99.90;;;;;;5004620;28;20186;-60
2021/01/19 00:53:09;;;;;;;13.70;5.87;;;-3.60;99.90;;;;;;5011543;28;20225;-60
2021/01/19 00:55:35;;;;;;;12.93;5.97;;;-3.60;99.90;;;;;;5010422;28;20475;-59
2021/01/19 00:58:01;;;;;;;7.80;5.23;;;-3.50;99.90;;;;;;5009673;28;20220;-60
2021/01/19 01:00:27;;;;;;;10.70;6.00;;;-3.50;99.90;;;;;;5011601;28;20433;-59
2021/01/19 01:02:52;;;;;;;10.73;5.83;;;-3.50;99.90;;;;;;5012305;28;20189;-60
2021/01/19 01:05:18;;;;;;;15.20;7.73;;;-3.50;99.90;;;;;;5012101;28;20288;-60
2021/01/19 01:07:44;;;;;;;15.00;7.00;;;-3.60;99.80;;;;;;5003225;28;20195;-61
2021/01/19 01:10:15;;;;;;;14.27;6.63;;;-3.60;99.90;;;;;;5008200;28;20202;-61
2021/01/19 01:12:41;;;;;;;12.50;6.60;;;-3.60;99.90;;;;;;5010778;28;20202;-60
2021/01/19 01:15:09;;;;;;;19.90;8.03;;;-3.60;99.90;;;;;;5009379;28;20457;-61
2021/01/19 01:17:44;;;;;;;16.20;8.80;;;-3.60;99.90;;;;;;5008148;28;20418;-61
2021/01/19 01:20:11;;;;;;;26.53;9.00;;;-3.70;99.80;;;;;;4993796;28;20422;-61
2021/01/19 01:22:44;;;;;;;20.77;9.20;;;-3.70;99.70;;;;;;5010327;28;20517;-61
2021/01/19 01:25:10;;;;;;;28.67;8.53;;;-3.70;99.60;;;;;;5006397;28;20466;-60
2021/01/19 01:27:36;;;;;;;20.27;9.57;;;-3.70;99.60;;;;;;5009017;28;20997;-61
2021/01/19 01:30:04;;;;;;;19.97;9.10;;;-3.80;99.40;;;;;;4994563;28;20442;-61
2021/01/19 01:32:30;;;;;;;18.90;8.50;;;-3.80;99.40;;;;;;5004302;28;20800;-61
2021/01/19 01:34:55;;;;;;;17.30;8.17;;;-3.90;99.30;;;;;;4992879;28;20473;-60
2021/01/19 01:37:21;;;;;;;19.43;9.27;;;-3.90;99.30;;;;;;5010620;28;20180;-60
2021/01/19 01:39:47;;;;;;;19.33;9.30;;;-4.00;99.30;;;;;;5011998;28;20170;-58
2021/01/19 01:42:23;;;;;;;18.13;9.27;;;-4.00;99.20;;;;;;5001301;28;20546;-61
2021/01/19 01:44:48;;;;;;;26.80;11.18;;;-4.00;99.20;;;;;;5008027;28;20578;-62
2021/01/19 01:47:24;;;;;;;21.03;9.90;;;-4.10;99.10;;;;;;5009450;28;20180;-61
2021/01/19 01:49:51;;;;;;;16.33;8.77;;;-4.10;99.30;;;;;;5008678;28;20685;-60
2021/01/19 01:52:20;;;;;;;22.08;10.30;;;-4.10;99.40;;;;;;5006846;28;20452;-59
2021/01/19 01:54:48;;;;;;;20.40;9.55;;;-4.20;99.20;;;;;;5008241;28;20227;-60
2021/01/19 01:57:14;;;;;;;22.45;9.95;;;-4.20;99.30;;;;;;5010607;28;20185;-61
2021/01/19 01:59:40;;;;;;;20.92;9.20;;;-4.20;99.30;;;;;;5008103;28;20272;-61
2021/01/19 02:02:12;;;;;;;26.43;9.97;;;-4.20;98.90;;;;;;5009115;28;20260;-59
2021/01/19 02:04:38;;;;;;;18.48;9.70;;;-4.30;98.50;;;;;;5011186;28;20215;-60
2021/01/19 02:07:11;;;;;;;14.43;9.83;;;-4.40;98.40;;;;;;5012138;28;20185;-59
2021/01/19 02:09:46;;;;;;;19.60;8.65;;;-4.40;98.40;;;;;;5011613;28;20174;-61
2021/01/19 02:12:20;;;;;;;19.73;8.85;;;-4.50;98.00;;;;;;5002064;28;20224;-62
2021/01/19 02:15:01;;;;;;;19.77;9.27;;;-4.60;98.10;;;;;;5008961;28;20303;-61
2021/01/19 02:17:41;;;;;;;19.05;9.60;;;-4.60;98.20;;;;;;4999376;28;20182;-61
2021/01/19 02:20:27;;;;;;;20.30;9.98;;;-4.60;98.20;;;;;;5003457;28;20532;-61
2021/01/19 02:23:27;;;;;;;16.77;8.20;;;-4.70;98.00;;;;;;5010884;28;20455;-59
2021/01/19 02:26:09;;;;;;;21.70;9.93;;;-4.70;97.90;;;;;;5011841;28;20247;-59
2021/01/19 02:28:44;;;;;;;31.08;10.85;;;-4.70;97.90;;;;;;5006715;28;20189;-61
2021/01/19 02:31:18;;;;;;;31.50;12.07;;;-4.80;98.40;;;;;;5006343;28;20602;-61
2021/01/19 02:33:53;;;;;;;21.20;10.35;;;-4.80;98.80;;;;;;5009202;28;20268;-60
2021/01/19 02:36:34;;;;;;;21.58;10.60;;;-4.80;98.90;;;;;;4996824;28;20264;-60
2021/01/19 02:39:02;;;;;;;15.88;9.43;;;-4.80;99.00;;;;;;4998872;28;20192;-60
2021/01/19 02:41:28;;;;;;;18.92;9.48;;;-4.80;98.60;;;;;;5002215;28;20666;-62
2021/01/19 02:44:20;;;;;;;18.23;9.50;;;-4.80;97.90;;;;;;5002258;28;20683;-61
2021/01/19 02:46:55;;;;;;;15.45;8.73;;;-4.90;97.60;;;;;;5006827;28;20181;-61
2021/01/19 02:49:22;;;;;;;19.48;8.25;;;-5.00;97.20;;;;;;5010390;28;20222;-60
2021/01/19 02:51:50;;;;;;;18.77;9.15;;;-5.00;97.00;;;;;;5002058;28;20260;-60
2021/01/19 02:54:22;;;;;;;14.90;7.25;;;-5.10;96.90;;;;;;5011720;28;20213;-66
2021/01/19 02:57:09;;;;;;;16.17;8.15;;;-5.10;96.90;;;;;;5007295;28;20199;-61
2021/01/19 02:59:59;;;;;;;27.63;10.20;;;-5.20;96.80;;;;;;5004211;28;20190;-59
2021/01/19 03:02:32;;;;;;;26.60;11.93;;;-5.30;96.70;;;;;;5001614;28;20181;-61
2021/01/19 03:05:00;;;;;;;57.47;13.25;;;-5.30;96.90;;;;;;5003226;28;20193;-59
2021/01/19 03:07:28;;;;;;;28.52;11.77;;;-5.40;97.30;;;;;;5009748;28;20204;-61
2021/01/19 03:09:58;;;;;;;29.30;12.98;;;-5.40;97.80;;;;;;5007162;28;20664;-61
2021/01/19 03:12:25;;;;;;;29.20;12.05;;;-5.40;98.10;;;;;;5009475;28;20189;-58
2021/01/19 03:14:50;;;;;;;23.77;11.55;;;-5.40;98.40;;;;;;5006679;28;20200;-62
2021/01/19 03:17:16;;;;;;;29.27;12.43;;;-5.40;98.50;;;;;;4990888;28;20185;-60
2021/01/19 03:19:43;;;;;;;23.83;10.53;;;-5.40;98.70;;;;;;4989904;28;20174;-58
2021/01/19 03:22:10;;;;;;;26.00;11.38;;;-5.30;99.00;;;;;;4991028;28;20188;-60
2021/01/19 03:24:39;;;;;;;29.05;11.55;;;-5.30;98.90;;;;;;4997519;28;20209;-60
2021/01/19 03:27:06;;;;;;;23.20;10.85;;;-5.30;98.80;;;;;;5006365;28;20200;-60
2021/01/19 03:29:33;;;;;;;20.20;9.68;;;-5.30;98.90;;;;;;5006484;28;20177;-60
2021/01/19 03:31:59;;;;;;;25.20;9.88;;;-5.30;98.40;;;;;;4991570;28;20212;-59
2021/01/19 03:34:25;;;;;;;26.30;9.40;;;-5.30;97.90;;;;;;4993710;28;20201;-60
2021/01/19 03:36:51;;;;;;;21.87;8.77;;;-5.30;97.60;;;;;;4990548;28;20188;-61
2021/01/19 03:39:17;;;;;;;15.17;7.17;;;-5.30;97.60;;;;;;5005342;28;20386;-60
2021/01/19 03:41:42;;;;;;;20.27;8.60;;;-5.30;98.20;;;;;;5003252;28;20182;-61
2021/01/19 03:44:08;;;;;;;13.03;6.30;;;-5.20;98.80;;;;;;5004151;28;20195;-60
2021/01/19 03:46:34;;;;;;;9.93;5.43;;;-5.10;99.40;;;;;;5008562;28;20188;-60
2021/01/19 03:49:00;;;;;;;9.30;5.30;;;-5.00;99.90;;;;;;5009727;28;20965;-59
2021/01/19 03:51:26;;;;;;;9.75;5.68;;;-4.80;99.90;;;;;;5008496;28;20201;-59
2021/01/19 03:53:55;;;;;;;12.80;5.60;;;-4.70;99.90;;;;;;5008229;28;20265;-59
2021/01/19 03:56:21;;;;;;;9.45;6.47;;;-4.60;99.90;;;;;;5001974;28;20185;-60
2021/01/19 03:58:47;;;;;;;11.80;5.63;;;-4.50;99.90;;;;;;5007703;28;20173;-60
2021/01/19 04:01:12;;;;;;;11.93;5.90;;;-4.40;99.90;;;;;;4999721;28;20180;-59
2021/01/19 04:03:39;;;;;;;11.67;6.43;;;-4.30;99.90;;;;;;5006196;28;20407;-60
2021/01/19 04:06:08;;;;;;;13.30;7.40;;;-4.30;99.90;;;;;;5005508;28;20198;-61
2021/01/19 04:08:38;;;;;;;12.75;7.70;;;-4.30;99.90;;;;;;5001536;28;20530;-60
2021/01/19 04:11:07;;;;;;;18.27;6.70;;;-4.30;99.90;;;;;;4997862;28;20186;-59
2021/01/19 04:13:34;;;;;;;13.88;7.03;;;-4.30;99.90;;;;;;5009903;28;20561;-59
2021/01/19 04:16:00;;;;;;;14.30;7.20;;;-4.40;99.90;;;;;;5006446;28;20241;-60
2021/01/19 04:18:26;;;;;;;10.20;5.83;;;-4.40;99.80;;;;;;4998051;28;20545;-60
2021/01/19 04:20:52;;;;;;;16.10;6.70;;;-4.50;99.90;;;;;;5004331;28;20386;-60
2021/01/19 04:23:18;;;;;;;13.13;6.70;;;-4.50;99.90;;;;;;5004730;28;20416;-62
2021/01/19 04:25:45;;;;;;;10.80;5.93;;;-4.40;99.90;;;;;;5006318;28;20508;-60
2021/01/19 04:28:11;;;;;;;12.68;7.00;;;-4.50;99.40;;;;;;5007461;28;20189;-61
2021/01/19 04:30:38;;;;;;;10.00;6.20;;;-4.50;98.60;;;;;;5007567;28;20186;-61
2021/01/19 04:33:04;;;;;;;13.85;6.90;;;-4.60;98.20;;;;;;4991926;28;20205;-66
2021/01/19 04:35:30;;;;;;;15.18;7.15;;;-4.60;98.30;;;;;;4991935;28;20239;-60
2021/01/19 04:37:55;;;;;;;12.50;6.93;;;-4.70;98.30;;;;;;5010499;28;20257;-61
2021/01/19 04:40:22;;;;;;;11.97;7.00;;;-4.70;98.40;;;;;;5012210;28;20176;-58
2021/01/19 04:42:48;;;;;;;15.52;7.03;;;-4.70;98.40;;;;;;5007203;28;20213;-60
2021/01/19 04:45:14;;;;;;;15.30;7.47;;;-4.60;99.60;;;;;;5009498;28;20318;-61
2021/01/19 04:47:40;;;;;;;12.93;7.43;;;-4.50;99.90;;;;;;4994911;28;20222;-62
2021/01/19 04:50:11;;;;;;;14.07;6.70;;;-4.50;99.90;;;;;;5010313;28;20216;-58
2021/01/19 04:52:42;;;;;;;12.88;6.78;;;-4.50;99.70;;;;;;4993815;28;20446;-60
2021/01/19 04:55:11;;;;;;;12.40;6.37;;;-4.50;99.90;;;;;;5009541;28;20217;-60
2021/01/19 04:57:40;;;;;;;14.48;7.32;;;-4.50;99.90;;;;;;5011507;28;20424;-60
2021/01/19 05:00:12;;;;;;;11.65;7.20;;;-4.40;99.90;;;;;;5008534;28;20189;-59
2021/01/19 05:02:50;;;;;;;12.13;7.15;;;-4.40;99.90;;;;;;5001524;28;20185;-60
2021/01/19 05:05:37;;;;;;;11.32;7.00;;;-4.30;99.90;;;;;;5002816;28;20645;-61
2021/01/19 05:08:02;;;;;;;15.60;7.38;;;-4.30;99.90;;;;;;4999082;28;20217;-61
2021/01/19 05:10:38;;;;;;;19.10;7.90;;;-4.20;99.90;;;;;;5009298;28;20211;-60
2021/01/19 05:13:09;;;;;;;11.98;7.07;;;-4.20;99.90;;;;;;5011565;28;20295;-60
2021/01/19 05:15:46;;;;;;;15.18;7.45;;;-4.20;99.90;;;;;;5009214;28;20888;-61
2021/01/19 05:18:13;;;;;;;20.30;7.50;;;-4.20;99.90;;;;;;4995099;28;20652;-59
2021/01/19 05:20:46;;;;;;;16.70;8.30;;;-4.10;99.90;;;;;;5004804;28;20747;-62
2021/01/19 05:23:21;;;;;;;16.60;7.97;;;-4.10;99.90;;;;;;4991289;28;21042;-60
2021/01/19 05:25:50;;;;;;;16.35;8.40;;;-4.00;99.90;;;;;;5004951;28;20482;-60
2021/01/19 05:28:16;;;;;;;14.35;7.53;;;-3.90;99.90;;;;;;5011047;28;20216;-59
2021/01/19 05:30:49;;;;;;;16.97;7.93;;;-3.80;99.90;;;;;;5005355;28;20225;-58
2021/01/19 05:33:14;;;;;;;17.00;7.75;;;-3.80;99.90;;;;;;4999190;28;20197;-58
2021/01/19 05:35:42;;;;;;;19.07;9.87;;;-3.70;99.90;;;;;;5007811;28;20193;-59
2021/01/19 05:38:08;;;;;;;18.27;10.07;;;-3.70;99.90;;;;;;4993978;28;20221;-59
2021/01/19 05:40:43;;;;;;;19.27;9.60;;;-3.60;99.90;;;;;;4991103;28;20405;-60
2021/01/19 05:43:10;;;;;;;17.23;8.30;;;-3.60;99.90;;;;;;4991323;28;20185;-58
2021/01/19 05:45:35;;;;;;;19.57;8.47;;;-3.60;99.90;;;;;;5000727;28;20457;-59
2021/01/19 05:48:13;;;;;;;21.97;8.00;;;-3.50;99.90;;;;;;5002692;28;20422;-59
2021/01/19 05:50:39;;;;;;;14.70;7.63;;;-3.50;99.90;;;;;;5004382;28;20169;-60
2021/01/19 05:53:14;;;;;;;16.00;9.17;;;-3.40;99.90;;;;;;4992624;28;21491;-60
2021/01/19 05:55:59;;;;;;;17.93;8.33;;;-3.40;99.90;;;;;;4998543;28;20489;-58
2021/01/19 05:58:34;;;;;;;15.53;8.00;;;-3.40;99.90;;;;;;5000365;28;20458;-62
2021/01/19 06:01:01;;;;;;;13.53;8.27;;;-3.40;99.90;;;;;;4997323;28;20423;-63
2021/01/19 06:03:32;;;;;;;13.47;7.80;;;-3.40;99.90;;;;;;4991325;28;20438;-60
2021/01/19 06:05:57;;;;;;;20.60;9.00;;;-3.40;99.90;;;;;;4996142;28;20435;-60
2021/01/19 06:08:24;;;;;;;21.97;7.83;;;-3.40;99.90;;;;;;4994691;28;20448;-60
2021/01/19 06:10:50;;;;;;;17.27;8.50;;;-3.40;99.90;;;;;;4994327;28;20194;-60
2021/01/19 06:13:19;;;;;;;20.43;9.50;;;-3.40;99.90;;;;;;5014511;28;20460;-60
2021/01/19 06:15:45;;;;;;;21.90;10.00;;;-3.40;99.90;;;;;;5001909;28;20494;-60
2021/01/19 06:18:10;;;;;;;19.57;9.10;;;-3.40;99.90;;;;;;4983994;28;20440;-60
2021/01/19 06:20:41;;;;;;;20.37;10.30;;;-3.30;99.90;;;;;;4993462;28;20435;-61
2021/01/19 06:23:11;;;;;;;24.70;11.17;;;-3.30;99.90;;;;;;4998297;28;20205;-64
2021/01/19 06:25:37;;;;;;;22.20;11.90;;;-3.40;99.90;;;;;;4991177;28;21004;-62
2021/01/19 06:28:13;;;;;;;25.00;12.73;;;-3.30;99.90;;;;;;4992947;28;20440;-61
2021/01/19 06:30:38;;;;;;;28.33;12.63;;;-3.30;99.90;;;;;;4989287;28;20443;-62
2021/01/19 06:33:04;;;;;;;21.93;10.50;;;-3.30;99.90;;;;;;4988390;28;20467;-60
2021/01/19 06:35:40;;;;;;;19.67;11.10;;;-3.30;99.90;;;;;;4992686;28;20664;-59
2021/01/19 06:38:07;;;;;;;19.30;9.80;;;-3.30;99.90;;;;;;4994680;28;20526;-60
2021/01/19 06:40:37;;;;;;;19.00;10.17;;;-3.30;99.90;;;;;;4994471;28;20424;-62
2021/01/19 06:43:04;;;;;;;22.97;11.53;;;-3.30;99.90;;;;;;4988185;28;20576;-60
2021/01/19 06:45:31;;;;;;;17.50;9.60;;;-3.30;99.90;;;;;;4997402;28;20948;-60
2021/01/19 06:48:01;;;;;;;18.93;10.17;;;-3.40;99.80;;;;;;4987516;28;20455;-60
2021/01/19 06:50:29;;;;;;;19.07;9.40;;;-3.40;99.70;;;;;;4990692;28;20446;-60
2021/01/19 06:53:14;;;;;;;16.33;9.77;;;-3.50;99.60;;;;;;4987027;28;20473;-61
2021/01/19 06:55:49;;;;;;;18.77;10.10;;;-3.50;99.80;;;;;;4991494;28;20468;-62
2021/01/19 06:58:46;;;;;;;16.37;8.63;;;-3.60;99.70;;;;;;4990267;28;20436;-59
2021/01/19 07:01:19;;;;;;;19.90;9.97;;;-3.60;99.70;;;;;;4985093;28;21174;-60
2021/01/19 07:03:47;;;;;;;20.00;9.65;;;-3.60;99.90;;;;;;4990474;28;20437;-60
2021/01/19 07:06:15;;;;;;;16.43;9.10;;;-3.50;99.90;;;;;;4994026;28;20240;-61
2021/01/19 07:09:15;;;;;;;15.40;9.90;;;-3.50;99.90;;;;;;4996569;28;20810;-62
2021/01/19 07:12:02;;;;;;;16.43;9.60;;;-3.50;99.90;;;;;;4997192;28;20508;-60
2021/01/19 07:14:43;;;;;;;18.70;9.50;;;-3.40;99.90;;;;;;4993769;28;20508;-61
2021/01/19 07:17:26;;;;;;;18.50;9.60;;;-3.40;99.90;;;;;;4991584;28;20820;-60
2021/01/19 07:19:52;;;;;;;19.70;10.40;;;-3.30;99.90;;;;;;4994284;28;20424;-61
2021/01/19 07:22:57;;;;;;;21.00;10.67;;;-3.30;99.90;;;;;;4993828;28;20443;-61
2021/01/19 07:25:23;;;;;;;18.23;10.37;;;-3.30;99.90;;;;;;4936292;28;20234;-61
2021/01/19 07:27:49;;;;;;;32.37;12.00;;;-3.30;99.90;;;;;;4981620;28;21169;-61
2021/01/19 07:30:16;;;;;;;25.20;12.33;;;-3.30;99.90;;;;;;4993322;28;21036;-60
2021/01/19 07:32:50;;;;;;;16.77;10.10;;;-3.20;99.90;;;;;;4995380;28;20449;-63
2021/01/19 07:35:21;;;;;;;17.83;8.50;;;-3.20;99.90;;;;;;5004222;28;20457;-62
2021/01/19 07:37:55;;;;;;;17.17;9.00;;;-3.20;99.90;;;;;;4999368;28;20969;-60
2021/01/19 07:40:21;;;;;;;16.83;9.53;;;-3.10;99.90;;;;;;4994627;28;20433;-60
2021/01/19 07:42:47;;;;;;;19.13;9.17;;;-3.10;99.90;;;;;;4989366;28;20467;-60
2021/01/19 07:45:13;;;;;;;22.40;9.67;;;-3.10;99.90;;;;;;4994901;28;20460;-60
2021/01/19 07:47:44;;;;;;;18.40;10.00;;;-3.00;99.90;;;;;;4997286;28;20452;-61
2021/01/19 07:50:15;;;;;;;27.10;12.40;;;-3.00;99.90;;;;;;4988316;28;20511;-60
2021/01/19 07:52:43;;;;;;;28.43;12.70;;;-2.90;99.90;;;;;;4991742;28;20575;-59
2021/01/19 07:55:21;;;;;;;27.27;14.00;;;-2.80;99.90;;;;;;4990412;28;20637;-60
2021/01/19 07:57:49;;;;;;;30.10;14.17;;;-2.60;99.90;;;;;;4995370;28;20436;-61
2021/01/19 08:00:21;;;;;;;28.63;12.97;;;-2.50;99.90;;;;;;4990073;28;20500;-60
2021/01/19 08:02:47;;;;;;;23.57;12.90;;;-2.40;99.90;;;;;;4988229;28;20440;-62
2021/01/19 08:05:13;;;;;;;25.10;14.07;;;-2.30;99.90;;;;;;4990179;28;20456;-61
2021/01/19 08:07:44;;;;;;;24.73;12.53;;;-2.10;99.90;;;;;;4990630;28;20763;-60
2021/01/19 08:10:24;;;;;;;30.53;14.00;;;-2.10;99.90;;;;;;4991322;28;21369;-61
2021/01/19 08:12:55;;;;;;;30.33;15.13;;;-2.00;99.90;;;;;;4995178;28;20484;-62
2021/01/19 08:15:31;;;;;;;23.87;12.77;;;-1.90;99.90;;;;;;4994734;28;20452;-61
2021/01/19 08:18:01;;;;;;;22.60;12.00;;;-1.80;99.90;;;;;;4994196;28;20441;-62
2021/01/19 08:20:32;;;;;;;28.30;13.30;;;-1.70;99.90;;;;;;4997479;28;20553;-60
2021/01/19 08:23:20;;;;;;;28.50;12.40;;;-1.60;99.90;;;;;;4997048;28;20554;-58
2021/01/19 08:25:47;;;;;;;21.80;12.57;;;-1.50;99.90;;;;;;5001707;28;20446;-61
2021/01/19 08:28:14;;;;;;;27.07;13.50;;;-1.40;99.90;;;;;;5001535;28;20486;-61
2021/01/19 08:30:41;;;;;;;27.70;14.30;;;-1.40;99.90;;;;;;4996279;28;20436;-60
2021/01/19 08:33:07;;;;;;;22.50;12.30;;;-1.30;99.90;;;;;;5001346;28;20500;-59
2021/01/19 08:35:33;;;;;;;23.30;12.33;;;-1.20;99.90;;;;;;4996747;28;20456;-59
2021/01/19 08:38:02;;;;;;;23.30;12.93;;;-1.10;99.90;;;;;;4998945;28;20815;-59
2021/01/19 08:40:33;;;;;;;21.03;12.43;;;-1.00;99.90;;;;;;4990600;28;20465;-60
2021/01/19 08:43:00;;;;;;;27.20;12.53;;;-1.00;99.90;;;;;;4999829;28;20451;-60
2021/01/19 08:45:31;;;;;;;25.07;13.60;;;-0.80;99.90;;;;;;4999227;28;20464;-58
2021/01/19 08:48:00;;;;;;;25.87;14.37;;;-0.80;99.90;;;;;;5000669;28;21196;-61
2021/01/19 08:50:27;;;;;;;25.93;13.50;;;-0.70;99.90;;;;;;5000097;28;20423;-63
2021/01/19 08:52:54;;;;;;;20.67;12.23;;;-0.60;99.90;;;;;;5001151;28;20846;-63
2021/01/19 08:55:21;;;;;;;20.93;12.30;;;-0.50;99.90;;;;;;4986486;28;20486;-60
2021/01/19 08:57:59;;;;;;;24.63;12.80;;;-0.50;99.90;;;;;;4993535;28;20742;-60
2021/01/19 09:00:36;;;;;;;25.20;12.03;;;-0.40;99.90;;;;;;4993824;28;20442;-59
2021/01/19 09:03:09;;;;;;;28.90;13.63;;;-0.40;99.90;;;;;;4996045;28;20442;-59
2021/01/19 09:05:36;;;;;;;22.73;13.20;;;-0.40;99.90;;;;;;5000375;28;20575;-58
2021/01/19 09:08:12;;;;;;;26.63;15.13;;;-0.40;99.90;;;;;;5003124;28;21283;-61
2021/01/19 09:10:38;;;;;;;23.20;11.93;;;-0.30;99.90;;;;;;4996987;28;20443;-59
2021/01/19 09:13:05;;;;;;;23.50;11.40;;;-0.40;99.90;;;;;;4991684;28;20469;-59
2021/01/19 09:15:40;;;;;;;20.57;11.30;;;-0.30;99.90;;;;;;4991478;28;20461;-60
2021/01/19 09:18:13;;;;;;;23.40;11.93;;;-0.30;99.90;;;;;;4992921;28;20440;-60
2021/01/19 09:20:43;;;;;;;19.70;11.67;;;-0.20;99.90;;;;;;4998148;28;20526;-59
2021/01/19 09:23:16;;;;;;;28.03;11.77;;;-0.20;99.90;;;;;;5001173;28;20457;-59
2021/01/19 09:25:43;;;;;;;21.17;11.57;;;-0.10;99.90;;;;;;4997433;28;20460;-60
2021/01/19 09:28:09;;;;;;;24.23;13.60;;;0.00;99.90;;;;;;4997170;28;20467;-59
2021/01/19 09:30:35;;;;;;;16.47;10.00;;;0.10;99.90;;;;;;4993159;28;20973;-59
2021/01/19 09:33:09;;;;;;;19.50;10.10;;;0.10;99.00;;;;;;4989593;28;20464;-61
2021/01/19 09:35:36;;;;;;;19.00;10.03;;;0.10;99.10;;;;;;4997585;28;20206;-58
2021/01/19 09:38:04;;;;;;;19.40;10.20;;;0.10;99.10;;;;;;4996582;28;20432;-59
2021/01/19 09:40:34;;;;;;;26.20;12.87;;;0.20;99.20;;;;;;4998429;28;20440;-59
2021/01/19 09:43:27;;;;;;;23.83;12.20;;;0.20;99.00;;;;;;4989210;28;20465;-58
2021/01/19 09:46:01;;;;;;;25.00;13.23;;;0.30;99.00;;;;;;4991627;28;20456;-59
2021/01/19 09:48:28;;;;;;;21.70;12.03;;;0.40;98.80;;;;;;4996157;28;20444;-59
2021/01/19 09:51:01;;;;;;;20.97;12.60;;;0.40;98.20;;;;;;5003277;28;21019;-59
2021/01/19 09:53:30;;;;;;;21.17;10.90;;;0.40;98.70;;;;;;4999271;28;20467;-60
2021/01/19 09:55:57;;;;;;;20.80;11.77;;;0.50;98.90;;;;;;4989920;28;21137;-59
2021/01/19 09:58:27;;;;;;;21.90;11.60;;;0.50;99.20;;;;;;4997435;28;20429;-60
2021/01/19 10:00:54;;;;;;;21.60;11.60;;;0.60;98.80;;;;;;4995154;28;21104;-60
2021/01/19 10:03:25;;;;;;;20.60;11.47;;;0.60;99.00;;;;;;4995550;28;20552;-60
2021/01/19 10:05:58;;;;;;;22.83;13.30;;;0.70;98.70;;;;;;4993598;28;20458;-59
2021/01/19 10:08:23;;;;;;;31.53;14.10;;;0.80;98.60;;;;;;5018816;28;20449;-60
2021/01/19 10:10:49;;;;;;;19.20;9.50;;;0.80;98.50;;;;;;5024329;28;20790;-62
2021/01/19 10:13:15;;;;;;;16.50;9.03;;;0.90;98.10;;;;;;5014836;28;20456;-60
2021/01/19 10:15:41;;;;;;;19.93;9.20;;;0.90;97.70;;;;;;4997931;28;20282;-60
2021/01/19 10:18:06;;;;;;;15.70;7.73;;;0.90;97.40;;;;;;5001002;28;20190;-60
2021/01/19 10:20:34;;;;;;;18.70;10.43;;;1.00;97.30;;;;;;5005110;28;20205;-59
2021/01/19 10:23:00;;;;;;;14.93;9.07;;;1.00;96.70;;;;;;4997692;28;20187;-61
2021/01/19 10:25:33;;;;;;;18.70;10.67;;;1.00;96.80;;;;;;4999334;28;20472;-60
2021/01/19 10:28:01;;;;;;;16.00;10.20;;;1.00;97.10;;;;;;4999671;28;20463;-61
2021/01/19 10:30:35;;;;;;;23.10;12.40;;;1.10;97.00;;;;;;4997154;28;20453;-61
2021/01/19 10:33:02;;;;;;;22.37;11.40;;;1.10;97.30;;;;;;4995192;28;20700;-60
2021/01/19 10:35:33;;;;;;;20.33;11.20;;;1.20;96.70;;;;;;4999097;28;20471;-61
2021/01/19 10:38:06;;;;;;;18.10;10.80;;;1.20;96.60;;;;;;4994576;28;20452;-61
2021/01/19 10:40:32;;;;;;;20.37;10.23;;;1.30;96.80;;;;;;4997271;28;20437;-59
2021/01/19 10:43:01;;;;;;;13.60;8.50;;;1.40;96.60;;;;;;4997010;28;21242;-60
2021/01/19 10:45:28;;;;;;;16.20;8.00;;;1.40;96.30;;;;;;4993734;28;20858;-60
2021/01/19 10:47:56;;;;;;;14.80;8.40;;;1.40;95.60;;;;;;5000873;28;20444;-59
2021/01/19 10:50:29;;;;;;;15.10;8.17;;;1.40;95.50;;;;;;4999343;28;20449;-60
2021/01/19 10:53:01;;;;;;;20.73;11.40;;;1.40;96.00;;;;;;4996924;28;20461;-61
2021/01/19 10:55:45;;;;;;;14.60;9.20;;;1.40;96.10;;;;;;4993103;28;20914;-60
2021/01/19 10:58:11;;;;;;;14.17;7.93;;;1.50;95.70;;;;;;5000048;28;20527;-61
2021/01/19 11:00:37;;;;;;;11.23;7.30;;;1.40;95.20;;;;;;4991588;28;20492;-61
2021/01/19 11:03:03;;;;;;;13.10;7.93;;;1.30;95.40;;;;;;4996418;28;20304;-61
2021/01/19 11:05:29;;;;;;;12.13;7.07;;;1.30;95.40;;;;;;4996544;28;20296;-60
2021/01/19 11:07:56;;;;;;;12.33;8.67;;;1.30;95.40;;;;;;4996427;28;20528;-61
2021/01/19 11:10:24;;;;;;;11.50;7.20;;;1.30;95.60;;;;;;4999519;28;20190;-62
2021/01/19 11:12:54;;;;;;;10.23;7.73;;;1.20;95.60;;;;;;4993718;28;20469;-62
2021/01/19 11:15:21;;;;;;;12.87;7.63;;;1.20;95.70;;;;;;5000288;28;20459;-59
2021/01/19 11:17:52;;;;;;;11.07;7.03;;;1.20;95.60;;;;;;4992296;28;20464;-60
2021/01/19 11:20:18;;;;;;;13.70;6.77;;;1.30;95.60;;;;;;4997451;28;20954;-61
2021/01/19 11:22:46;;;;;;;11.13;6.73;;;1.30;95.40;;;;;;4994807;28;20457;-61
2021/01/19 11:25:16;;;;;;;10.27;7.23;;;1.30;95.50;;;;;;4997384;28;20502;-60
2021/01/19 11:27:42;;;;;;;13.23;7.30;;;1.30;95.50;;;;;;5002322;28;20432;-60
2021/01/19 11:30:09;;;;;;;11.50;7.13;;;1.30;95.40;;;;;;4994278;28;20445;-61
2021/01/19 11:32:35;;;;;;;17.27;7.60;;;1.30;95.10;;;;;;4992637;28;20471;-61
2021/01/19 11:35:00;;;;;;;12.43;7.93;;;1.20;95.00;;;;;;4982600;28;20462;-60
2021/01/19 11:37:26;;;;;;;19.93;8.47;;;1.20;95.00;;;;;;4997586;28;20863;-59
2021/01/19 11:39:54;;;;;;;14.00;7.73;;;1.10;95.30;;;;;;4999534;28;20195;-61
2021/01/19 11:42:20;;;;;;;12.70;8.10;;;1.10;95.40;;;;;;4998627;28;20213;-60
2021/01/19 11:44:46;;;;;;;12.70;8.00;;;1.10;95.90;;;;;;4995399;28;20928;-62
2021/01/19 11:47:11;;;;;;;18.17;8.70;;;1.20;96.10;;;;;;5002091;28;20248;-60
2021/01/19 11:49:38;;;;;;;13.43;7.70;;;1.10;96.10;;;;;;4998096;28;20992;-60
2021/01/19 11:52:04;;;;;;;12.30;7.90;;;1.20;95.90;;;;;;4993711;28;20210;-59
2021/01/19 11:54:29;;;;;;;16.93;7.63;;;1.20;96.00;;;;;;4993495;28;20461;-59
2021/01/19 11:56:55;;;;;;;15.50;8.10;;;1.20;96.20;;;;;;4994306;28;20449;-62
2021/01/19 11:59:21;;;;;;;15.27;7.80;;;1.30;95.90;;;;;;4992323;28;20688;-60
2021/01/19 12:01:57;;;;;;;13.13;7.60;;;1.20;95.60;;;;;;4994274;28;20277;-62
2021/01/19 12:04:23;;;;;;;12.93;7.40;;;1.20;95.60;;;;;;4985804;28;20480;-60
2021/01/19 12:06:49;;;;;;;15.00;8.70;;;1.30;95.70;;;;;;4985390;28;20461;-60
2021/01/19 12:09:15;;;;;;;11.63;7.80;;;1.30;95.60;;;;;;4995295;28;21405;-59
2021/01/19 12:11:51;;;;;;;14.60;7.80;;;1.30;95.30;;;;;;4999384;28;20444;-61
2021/01/19 12:14:17;;;;;;;10.67;7.50;;;1.30;95.20;;;;;;5002618;28;20431;-60
2021/01/19 12:16:42;;;;;;;11.37;7.30;;;1.30;95.40;;;;;;4997936;28;20437;-59
2021/01/19 12:19:12;;;;;;;11.23;6.70;;;1.30;95.40;;;;;;4995534;28;20811;-61
2021/01/19 12:21:46;;;;;;;15.63;7.50;;;1.30;95.50;;;;;;4998695;28;20547;-60
2021/01/19 12:24:12;;;;;;;11.23;7.10;;;1.40;95.60;;;;;;4995378;28;20452;-61
2021/01/19 12:26:38;;;;;;;17.50;8.20;;;1.30;95.10;;;;;;4991133;28;20441;-62
2021/01/19 12:29:03;;;;;;;12.00;6.90;;;1.30;95.60;;;;;;4994738;28;20575;-60
2021/01/19 12:31:31;;;;;;;11.60;6.97;;;1.30;95.80;;;;;;4992594;28;20587;-61
2021/01/19 12:33:58;;;;;;;10.03;7.13;;;1.30;96.30;;;;;;4995999;28;22056;-61
2021/01/19 12:36:24;;;;;;;12.50;6.67;;;1.30;95.50;;;;;;4998429;28;20450;-61
2021/01/19 12:38:50;;;;;;;9.57;6.87;;;1.30;95.80;;;;;;4995045;28;20482;-61
2021/01/19 12:41:16;;;;;;;9.90;6.70;;;1.30;95.60;;;;;;4987420;28;20226;-61
2021/01/19 12:43:43;;;;;;;10.43;7.10;;;1.30;96.00;;;;;;4996859;28;20744;-62
2021/01/19 12:46:12;;;;;;;11.13;6.87;;;1.20;96.10;;;;;;4984769;28;20472;-61
2021/01/19 12:48:39;;;;;;;13.53;6.60;;;1.20;96.00;;;;;;5003507;28;20480;-60